Time;durP1;ratioP1;P1;durP2;ratioP2;P2;SDS_P1;SDS_P2;PMS_P1;PMS_P2;Temp;Humidity;BMP_temperature;BMP_pressure;BME280_temperature;BME280_humidity;BME280_pressure;Samples;Min_cycle;Max_cycle;Signal;HPM_P1;HPM_P2
2021/10/12 00:00:17;;;;;;;9.40;6.50;;;10.20;1.00;;;;;;5136927;27;20438;-63
2021/10/12 00:02:48;;;;;;;14.80;6.47;;;10.20;99.90;;;;;;5098291;28;20559;-63
2021/10/12 00:05:15;;;;;;;12.30;6.13;;;10.20;99.90;;;;;;5098835;28;20474;-63
2021/10/12 00:07:43;;;;;;;7.83;6.03;;;10.20;99.90;;;;;;5098610;28;20465;-63
2021/10/12 00:10:11;;;;;;;14.43;6.27;;;10.20;1.00;;;;;;5098176;28;20434;-63
2021/10/12 00:12:38;;;;;;;10.00;6.40;;;10.20;99.90;;;;;;5098457;28;20460;-63
2021/10/12 00:15:06;;;;;;;11.83;6.50;;;10.20;99.90;;;;;;5097726;28;20509;-63
2021/10/12 00:17:36;;;;;;;12.07;6.77;;;10.20;99.90;;;;;;5110910;27;20433;-63
2021/10/12 00:20:06;;;;;;;11.93;5.50;;;10.20;99.90;;;;;;5139316;27;20793;-63
2021/10/12 00:22:36;;;;;;;10.10;6.90;;;10.30;99.90;;;;;;5139194;27;20483;-63
2021/10/12 00:25:04;;;;;;;11.10;6.97;;;10.30;99.90;;;;;;5138777;27;20494;-63
2021/10/12 00:27:31;;;;;;;14.47;7.40;;;10.20;99.90;;;;;;5139208;27;20831;-63
2021/10/12 00:29:58;;;;;;;10.10;7.70;;;10.20;99.90;;;;;;5139200;27;20455;-64
2021/10/12 00:32:25;;;;;;;10.80;6.80;;;10.30;1.00;;;;;;5138910;27;20767;-64
2021/10/12 00:34:52;;;;;;;12.60;7.77;;;10.20;99.90;;;;;;5139142;27;20479;-64
2021/10/12 00:37:20;;;;;;;9.50;7.00;;;10.10;1.00;;;;;;5138951;27;20810;-65
2021/10/12 00:39:47;;;;;;;13.00;7.20;;;10.10;1.00;;;;;;5139235;27;20555;-64
2021/10/12 00:42:14;;;;;;;11.97;7.27;;;10.10;99.90;;;;;;5138353;27;20545;-65
2021/10/12 00:44:41;;;;;;;13.17;8.17;;;10.10;99.90;;;;;;5138715;27;20465;-66
2021/10/12 00:47:08;;;;;;;13.20;8.40;;;10.10;99.90;;;;;;5138741;27;20936;-66
2021/10/12 00:49:35;;;;;;;15.40;9.50;;;10.10;99.90;;;;;;5138263;27;20537;-65
2021/10/12 00:52:03;;;;;;;14.90;9.47;;;10.10;99.90;;;;;;5138784;27;20931;-66
2021/10/12 00:54:31;;;;;;;16.87;9.70;;;10.10;99.90;;;;;;5138284;27;20532;-66
2021/10/12 00:57:02;;;;;;;11.63;9.37;;;10.00;99.90;;;;;;5138426;27;20482;-66
2021/10/12 00:59:32;;;;;;;15.87;11.53;;;10.00;99.90;;;;;;5138518;27;20533;-66
2021/10/12 01:01:59;;;;;;;21.30;12.80;;;10.00;99.90;;;;;;5106491;27;20854;-66
2021/10/12 01:04:28;;;;;;;21.13;11.13;;;10.00;99.90;;;;;;5097288;28;20487;-66
2021/10/12 01:06:55;;;;;;;21.17;13.10;;;10.00;99.90;;;;;;5097515;28;20456;-66
2021/10/12 01:09:22;;;;;;;19.53;14.50;;;10.00;99.90;;;;;;5097533;28;20934;-68
2021/10/12 01:11:50;;;;;;;17.37;13.13;;;10.00;99.90;;;;;;5097419;28;20875;-68
2021/10/12 01:14:20;;;;;;;19.27;14.67;;;9.90;99.90;;;;;;5097290;28;20435;-67
2021/10/12 01:16:48;;;;;;;29.03;17.50;;;10.00;99.90;;;;;;5097395;28;20460;-67
2021/10/12 01:19:16;;;;;;;26.97;17.03;;;10.00;99.90;;;;;;5097117;28;20592;-68
2021/10/12 01:21:46;;;;;;;20.80;15.83;;;10.00;99.90;;;;;;5097676;28;20461;-69
2021/10/12 01:24:14;;;;;;;25.80;17.53;;;10.00;99.90;;;;;;5097127;28;20503;-69
2021/10/12 01:26:42;;;;;;;22.93;17.60;;;9.90;99.90;;;;;;5096713;28;20481;-69
2021/10/12 01:29:10;;;;;;;31.60;18.40;;;9.90;99.90;;;;;;5097084;28;20492;-70
2021/10/12 01:31:38;;;;;;;22.60;16.67;;;10.00;99.90;;;;;;5097179;28;20500;-69
2021/10/12 01:34:12;;;;;;;21.30;16.73;;;10.00;99.90;;;;;;5097338;28;20907;-69
2021/10/12 01:36:42;;;;;;;21.60;15.57;;;10.00;99.90;;;;;;5096258;28;20471;-69
2021/10/12 01:39:11;;;;;;;19.50;17.03;;;10.00;99.90;;;;;;5097075;28;21010;-69
2021/10/12 01:41:40;;;;;;;23.63;17.27;;;10.00;99.90;;;;;;5097366;28;20468;-70
2021/10/12 01:44:10;;;;;;;21.30;17.00;;;10.00;99.90;;;;;;5096956;28;20503;-68
2021/10/12 01:46:37;;;;;;;21.43;17.43;;;10.00;99.90;;;;;;5096887;28;20465;-69
2021/10/12 01:49:05;;;;;;;21.73;18.40;;;10.00;99.90;;;;;;5096834;28;20492;-68
2021/10/12 01:51:32;;;;;;;23.07;17.63;;;10.00;99.90;;;;;;5097105;28;20495;-69
2021/10/12 01:54:00;;;;;;;24.90;18.97;;;10.00;99.90;;;;;;5097140;28;20491;-70
2021/10/12 01:56:29;;;;;;;19.77;17.20;;;10.00;99.90;;;;;;5096469;28;20500;-70
2021/10/12 01:58:55;;;;;;;22.67;18.37;;;10.00;99.90;;;;;;5096504;28;20579;-69
2021/10/12 02:01:24;;;;;;;23.17;18.50;;;10.00;99.90;;;;;;5107445;28;20483;-69
2021/10/12 02:03:51;;;;;;;24.07;18.90;;;10.00;99.90;;;;;;5116951;28;20466;-68
2021/10/12 02:06:18;;;;;;;25.00;17.60;;;10.00;99.90;;;;;;5116759;28;20516;-69
2021/10/12 02:08:45;;;;;;;21.90;18.60;;;10.10;99.90;;;;;;5116978;28;20467;-70
2021/10/12 02:11:13;;;;;;;26.27;17.97;;;10.00;99.90;;;;;;5117215;28;20832;-70
2021/10/12 02:13:41;;;;;;;25.53;18.30;;;10.00;99.90;;;;;;5116831;28;20836;-71
2021/10/12 02:16:08;;;;;;;25.00;18.20;;;10.00;99.90;;;;;;5117340;28;20817;-70
2021/10/12 02:18:35;;;;;;;20.93;16.47;;;10.00;99.90;;;;;;5131793;28;20462;-70
2021/10/12 02:21:02;;;;;;;19.17;17.00;;;9.90;99.90;;;;;;5137645;28;20897;-70
2021/10/12 02:23:29;;;;;;;17.60;14.20;;;10.00;99.90;;;;;;5136977;28;20852;-69
2021/10/12 02:25:56;;;;;;;18.07;14.23;;;9.90;99.90;;;;;;5137734;28;20822;-70
2021/10/12 02:28:26;;;;;;;15.93;13.27;;;10.00;99.90;;;;;;5137260;28;20494;-69
2021/10/12 02:30:54;;;;;;;18.27;13.80;;;10.00;99.90;;;;;;5137502;28;20429;-69
2021/10/12 02:33:21;;;;;;;18.80;14.10;;;10.00;99.90;;;;;;5137928;28;20512;-69
2021/10/12 02:35:48;;;;;;;18.13;13.07;;;9.90;99.90;;;;;;5137967;28;20869;-69
2021/10/12 02:38:15;;;;;;;17.60;14.00;;;9.80;99.90;;;;;;5137173;28;20502;-69
2021/10/12 02:40:43;;;;;;;18.80;14.30;;;9.80;99.90;;;;;;5137330;28;20523;-69
2021/10/12 02:43:09;;;;;;;19.53;14.13;;;9.80;99.90;;;;;;5136711;28;20477;-69
2021/10/12 02:45:36;;;;;;;17.20;12.70;;;9.80;99.90;;;;;;5137609;28;20468;-69
2021/10/12 02:48:05;;;;;;;15.27;12.70;;;9.90;99.90;;;;;;5139688;27;20501;-68
2021/10/12 02:50:32;;;;;;;18.93;14.33;;;9.80;99.90;;;;;;5141474;27;20486;-68
2021/10/12 02:52:59;;;;;;;14.60;12.10;;;9.80;99.90;;;;;;5140913;27;20463;-68
2021/10/12 02:55:26;;;;;;;19.00;12.70;;;9.90;99.90;;;;;;5140982;27;20458;-68
2021/10/12 02:57:53;;;;;;;14.63;12.60;;;9.90;99.90;;;;;;5140868;27;20505;-68
2021/10/12 03:00:20;;;;;;;15.60;13.23;;;9.80;99.90;;;;;;5136928;27;20585;-68
2021/10/12 03:02:47;;;;;;;16.40;13.07;;;9.90;99.90;;;;;;5099096;28;20485;-67
2021/10/12 03:05:16;;;;;;;16.50;13.90;;;9.90;99.90;;;;;;5099810;28;20496;-67
2021/10/12 03:07:43;;;;;;;15.13;12.17;;;9.80;99.90;;;;;;5100084;28;20886;-67
2021/10/12 03:10:10;;;;;;;16.77;11.90;;;9.80;99.90;;;;;;5099624;28;20464;-67
2021/10/12 03:12:38;;;;;;;15.40;13.63;;;10.00;99.90;;;;;;5099441;28;20463;-67
2021/10/12 03:15:06;;;;;;;15.63;13.20;;;9.80;99.90;;;;;;5099610;28;20506;-67
2021/10/12 03:17:33;;;;;;;16.07;13.10;;;9.80;99.90;;;;;;5112068;27;20491;-67
2021/10/12 03:20:00;;;;;;;14.53;12.13;;;9.80;99.90;;;;;;5140093;27;20584;-67
2021/10/12 03:22:28;;;;;;;19.93;13.07;;;9.80;99.90;;;;;;5140011;27;20512;-68
2021/10/12 03:24:55;;;;;;;19.87;14.73;;;9.80;99.90;;;;;;5139982;27;20960;-68
2021/10/12 03:27:22;;;;;;;17.37;13.70;;;9.80;99.90;;;;;;5140321;27;20485;-67
2021/10/12 03:29:49;;;;;;;16.60;13.63;;;9.90;99.90;;;;;;5140260;27;20501;-67
2021/10/12 03:32:16;;;;;;;15.10;12.30;;;9.90;99.90;;;;;;5140242;27;20800;-67
2021/10/12 03:34:43;;;;;;;15.40;12.53;;;9.90;99.90;;;;;;5140409;27;20486;-67
2021/10/12 03:37:10;;;;;;;15.60;11.87;;;9.80;99.90;;;;;;5139994;27;20481;-67
2021/10/12 03:39:39;;;;;;;14.70;11.60;;;9.90;99.90;;;;;;5139666;27;20526;-67
2021/10/12 03:42:06;;;;;;;14.10;10.40;;;9.90;99.90;;;;;;5140048;27;20897;-66
2021/10/12 03:44:33;;;;;;;18.57;11.00;;;9.90;99.90;;;;;;5140037;27;20957;-68
2021/10/12 03:47:00;;;;;;;12.47;10.27;;;9.90;99.90;;;;;;5140371;27;20494;-68
2021/10/12 03:49:27;;;;;;;18.87;10.47;;;9.90;99.90;;;;;;5139997;27;20493;-67
2021/10/12 03:51:54;;;;;;;12.67;11.30;;;9.80;99.90;;;;;;5139255;27;20494;-67
2021/10/12 03:54:21;;;;;;;15.50;12.20;;;9.90;99.90;;;;;;5139654;27;20498;-67
2021/10/12 03:56:49;;;;;;;16.40;9.83;;;9.90;99.90;;;;;;5139790;27;20496;-67
2021/10/12 03:59:16;;;;;;;17.90;10.10;;;9.90;99.90;;;;;;5138895;27;20463;-67
2021/10/12 04:01:44;;;;;;;12.57;9.20;;;9.90;99.90;;;;;;5111797;27;20922;-67
2021/10/12 04:04:11;;;;;;;17.43;10.67;;;9.80;99.90;;;;;;5098668;28;20950;-67
2021/10/12 04:06:40;;;;;;;14.60;10.57;;;9.90;99.90;;;;;;5098982;28;20496;-67
2021/10/12 04:09:07;;;;;;;13.23;11.03;;;9.90;99.90;;;;;;5098871;28;20463;-67
2021/10/12 04:11:34;;;;;;;18.90;12.53;;;9.80;99.90;;;;;;5098725;28;20499;-67
2021/10/12 04:14:03;;;;;;;13.80;11.90;;;9.80;99.90;;;;;;5098632;28;20488;-67
2021/10/12 04:16:30;;;;;;;15.50;13.00;;;10.00;99.90;;;;;;5098643;28;20496;-67
2021/10/12 04:18:57;;;;;;;15.20;13.60;;;10.00;99.90;;;;;;5134542;27;20491;-66
2021/10/12 04:21:26;;;;;;;21.40;16.63;;;10.00;99.90;;;;;;5138951;27;21028;-66
2021/10/12 04:23:53;;;;;;;21.53;17.20;;;10.00;99.90;;;;;;5139119;27;20485;-66
2021/10/12 04:26:23;;;;;;;30.40;19.10;;;10.00;99.90;;;;;;5139252;27;20961;-66
2021/10/12 04:28:50;;;;;;;32.37;22.33;;;10.00;99.90;;;;;;5139191;27;20463;-66
2021/10/12 04:31:19;;;;;;;33.63;20.80;;;10.10;99.90;;;;;;5138701;27;20497;-66
2021/10/12 04:33:48;;;;;;;27.80;20.30;;;10.00;99.90;;;;;;5139390;27;20454;-66
2021/10/12 04:36:15;;;;;;;27.03;19.30;;;10.00;99.90;;;;;;5139050;27;20897;-66
2021/10/12 04:38:42;;;;;;;21.57;15.70;;;10.10;99.90;;;;;;5138295;27;20799;-66
2021/10/12 04:41:10;;;;;;;20.53;15.90;;;10.00;99.90;;;;;;5139285;27;20544;-66
2021/10/12 04:43:39;;;;;;;22.07;14.77;;;9.90;99.90;;;;;;5138995;27;20905;-67
2021/10/12 04:46:06;;;;;;;23.13;15.07;;;9.90;99.90;;;;;;5139250;27;20455;-66
2021/10/12 04:48:38;;;;;;;21.97;15.13;;;10.00;99.90;;;;;;5138755;27;20494;-66
2021/10/12 04:51:05;;;;;;;18.20;12.20;;;9.90;99.90;;;;;;5138919;27;21507;-66
2021/10/12 04:53:36;;;;;;;19.20;12.90;;;9.90;99.90;;;;;;5138533;27;20490;-66
2021/10/12 04:56:03;;;;;;;16.70;11.73;;;9.80;99.90;;;;;;5139060;27;20496;-66
2021/10/12 04:58:30;;;;;;;16.03;11.60;;;9.80;99.90;;;;;;5138878;27;20526;-66
2021/10/12 05:00:57;;;;;;;16.13;12.07;;;9.90;99.90;;;;;;5122982;27;20569;-66
2021/10/12 05:03:24;;;;;;;16.87;11.40;;;9.90;99.90;;;;;;5097065;28;20459;-66
2021/10/12 05:05:52;;;;;;;24.00;13.33;;;9.90;99.90;;;;;;5097600;28;20460;-66
2021/10/12 05:08:19;;;;;;;25.80;14.33;;;9.80;99.90;;;;;;5097341;28;20460;-66
2021/10/12 05:10:47;;;;;;;24.63;14.00;;;9.90;99.90;;;;;;5096574;28;20488;-66
2021/10/12 05:13:13;;;;;;;22.07;13.70;;;9.80;99.90;;;;;;5097000;28;20477;-66
2021/10/12 05:15:46;;;;;;;18.40;14.87;;;9.80;99.90;;;;;;5097273;28;20512;-66
2021/10/12 05:18:18;;;;;;;21.87;16.73;;;9.80;99.90;;;;;;5121168;27;20466;-66
2021/10/12 05:20:45;;;;;;;29.30;16.63;;;9.80;99.90;;;;;;5138131;27;20486;-65
2021/10/12 05:23:14;;;;;;;31.23;20.67;;;9.80;99.90;;;;;;5138119;27;20498;-66
2021/10/12 05:25:46;;;;;;;29.73;23.70;;;9.80;99.90;;;;;;5138106;27;20465;-66
2021/10/12 05:28:14;;;;;;;31.97;21.30;;;9.80;99.90;;;;;;5138217;27;20768;-66
2021/10/12 05:30:43;;;;;;;31.40;22.87;;;9.80;99.90;;;;;;5138120;27;20490;-65
2021/10/12 05:33:13;;;;;;;32.30;23.83;;;9.70;99.90;;;;;;5138249;27;20454;-65
2021/10/12 05:35:40;;;;;;;33.80;23.80;;;9.80;99.90;;;;;;5137757;28;20494;-65
2021/10/12 05:38:07;;;;;;;42.20;24.47;;;9.80;99.90;;;;;;5138330;28;20517;-65
2021/10/12 05:40:35;;;;;;;30.20;23.60;;;9.70;99.90;;;;;;5138301;28;20958;-65
2021/10/12 05:43:02;;;;;;;30.07;22.30;;;9.80;99.90;;;;;;5138137;28;20466;-65
2021/10/12 05:45:29;;;;;;;30.90;21.10;;;9.80;99.90;;;;;;5138106;28;20475;-65
2021/10/12 05:47:58;;;;;;;35.70;24.43;;;9.80;99.90;;;;;;5137976;28;20458;-65
2021/10/12 05:50:25;;;;;;;28.47;22.00;;;9.70;99.90;;;;;;5137520;28;20485;-65
2021/10/12 05:53:03;;;;;;;30.20;22.87;;;9.70;99.90;;;;;;5137780;28;20465;-65
2021/10/12 05:55:36;;;;;;;28.70;23.37;;;9.80;99.90;;;;;;5137765;28;20461;-65
2021/10/12 05:58:08;;;;;;;28.97;22.30;;;9.80;99.90;;;;;;5137726;28;20466;-65
2021/10/12 06:00:38;;;;;;;24.77;20.63;;;9.80;99.90;;;;;;5129789;28;20451;-65
2021/10/12 06:03:07;;;;;;;26.63;20.53;;;9.70;99.90;;;;;;5112566;28;20462;-65
2021/10/12 06:05:35;;;;;;;30.23;23.00;;;9.70;99.90;;;;;;5116328;28;20498;-65
2021/10/12 06:08:04;;;;;;;26.37;22.00;;;9.70;99.90;;;;;;5116799;28;20869;-65
2021/10/12 06:10:31;;;;;;;31.03;22.47;;;9.70;99.90;;;;;;5115816;28;20513;-65
2021/10/12 06:12:58;;;;;;;27.57;21.93;;;9.70;99.90;;;;;;5116980;28;20841;-65
2021/10/12 06:15:27;;;;;;;30.87;21.47;;;9.70;99.90;;;;;;5116971;28;20467;-65
2021/10/12 06:17:55;;;;;;;24.97;19.27;;;9.70;99.90;;;;;;5125636;28;20465;-65
2021/10/12 06:20:30;;;;;;;22.37;19.67;;;9.70;99.90;;;;;;5136150;28;20486;-65
2021/10/12 06:22:58;;;;;;;24.43;21.70;;;9.70;99.90;;;;;;5140488;27;20458;-65
2021/10/12 06:25:25;;;;;;;24.23;19.50;;;9.70;99.90;;;;;;5140566;27;20490;-67
2021/10/12 06:27:55;;;;;;;23.70;18.17;;;9.70;99.90;;;;;;5141805;27;20549;-65
2021/10/12 06:30:25;;;;;;;23.87;18.10;;;9.60;99.90;;;;;;5141735;27;20454;-66
2021/10/12 06:32:53;;;;;;;19.83;16.53;;;9.60;99.90;;;;;;5141458;27;20458;-65
2021/10/12 06:35:20;;;;;;;20.63;16.97;;;9.70;99.90;;;;;;5140206;27;20501;-65
2021/10/12 06:37:50;;;;;;;28.83;16.83;;;9.70;99.90;;;;;;5140915;27;20462;-65
2021/10/12 06:40:21;;;;;;;21.73;16.40;;;9.70;99.90;;;;;;5141275;27;20517;-66
2021/10/12 06:42:48;;;;;;;24.63;17.30;;;9.70;99.90;;;;;;5140929;27;20454;-65
2021/10/12 06:45:16;;;;;;;20.50;16.63;;;9.70;99.90;;;;;;5140735;27;20555;-65
2021/10/12 06:47:43;;;;;;;19.93;16.10;;;9.70;99.90;;;;;;5140868;27;20466;-65
2021/10/12 06:50:11;;;;;;;18.37;15.93;;;9.70;99.90;;;;;;5140826;27;20501;-65
2021/10/12 06:52:42;;;;;;;23.40;15.63;;;9.80;99.90;;;;;;5141501;27;20490;-65
2021/10/12 06:55:10;;;;;;;24.27;15.97;;;9.80;99.90;;;;;;5141493;27;20833;-65
2021/10/12 06:57:39;;;;;;;17.60;14.90;;;9.80;99.90;;;;;;5140890;27;20904;-65
2021/10/12 07:00:09;;;;;;;18.97;16.03;;;9.90;99.90;;;;;;5139976;27;20747;-65
2021/10/12 07:02:35;;;;;;;17.20;14.70;;;9.80;99.90;;;;;;5099249;28;20546;-65
2021/10/12 07:05:11;;;;;;;20.13;14.60;;;10.00;99.90;;;;;;5103076;28;20799;-65
2021/10/12 07:07:41;;;;;;;15.53;13.67;;;10.00;99.90;;;;;;5110319;28;20451;-65
2021/10/12 07:10:11;;;;;;;20.37;13.87;;;10.10;99.90;;;;;;5109985;28;20488;-65
2021/10/12 07:12:43;;;;;;;18.57;13.80;;;10.10;99.90;;;;;;5110934;28;20491;-65
2021/10/12 07:15:11;;;;;;;16.97;13.67;;;10.20;99.90;;;;;;5119759;28;20470;-65
2021/10/12 07:17:38;;;;;;;21.43;13.83;;;10.30;99.90;;;;;;5126350;27;20489;-65
2021/10/12 07:20:07;;;;;;;21.77;15.07;;;10.30;99.90;;;;;;5123892;27;20475;-65
2021/10/12 07:22:40;;;;;;;15.83;13.10;;;10.20;99.90;;;;;;5120012;28;20927;-65
2021/10/12 07:25:15;;;;;;;22.07;13.80;;;10.10;99.90;;;;;;5119634;28;20736;-65
2021/10/12 07:27:46;;;;;;;19.37;13.37;;;10.10;99.90;;;;;;5119392;28;20490;-65
2021/10/12 07:30:16;;;;;;;15.50;13.90;;;10.10;99.90;;;;;;5119025;28;20470;-64
2021/10/12 07:32:42;;;;;;;13.70;11.50;;;10.00;99.90;;;;;;5118991;28;20513;-65
2021/10/12 07:35:10;;;;;;;16.70;14.00;;;10.00;99.90;;;;;;5119272;28;20441;-65
2021/10/12 07:37:40;;;;;;;17.33;13.07;;;10.00;99.90;;;;;;5119420;28;20824;-65
2021/10/12 07:40:10;;;;;;;13.93;12.07;;;10.00;99.90;;;;;;5119817;28;20455;-65
2021/10/12 07:42:37;;;;;;;18.33;12.83;;;10.00;99.90;;;;;;5119508;28;20498;-65
2021/10/12 07:45:07;;;;;;;15.83;11.73;;;10.00;99.90;;;;;;5119442;28;20498;-65
2021/10/12 07:47:34;;;;;;;14.00;12.53;;;10.00;99.90;;;;;;5119060;28;20495;-65
2021/10/12 07:50:03;;;;;;;14.07;12.27;;;10.10;99.90;;;;;;5117713;28;20542;-65
2021/10/12 07:52:32;;;;;;;14.73;12.53;;;10.00;99.90;;;;;;5117769;28;20459;-66
2021/10/12 07:55:12;;;;;;;16.57;12.67;;;9.90;99.90;;;;;;5119658;28;20942;-66
2021/10/12 07:57:41;;;;;;;13.40;12.10;;;9.90;99.90;;;;;;5118607;28;20470;-66
2021/10/12 08:00:13;;;;;;;13.17;11.80;;;9.90;99.90;;;;;;5119287;28;20820;-66
2021/10/12 08:02:39;;;;;;;16.63;13.00;;;9.90;99.90;;;;;;5118894;28;20503;-66
2021/10/12 08:05:07;;;;;;;16.90;12.30;;;9.90;99.90;;;;;;5118873;28;20901;-66
2021/10/12 08:07:39;;;;;;;13.80;11.90;;;9.80;99.90;;;;;;5117782;28;20463;-66
2021/10/12 08:10:08;;;;;;;17.07;12.87;;;9.90;99.90;;;;;;5121628;27;20458;-66
2021/10/12 08:12:38;;;;;;;14.60;12.93;;;9.90;99.90;;;;;;5138724;27;20852;-66
2021/10/12 08:15:08;;;;;;;19.50;13.83;;;9.90;99.90;;;;;;5139149;27;20855;-66
2021/10/12 08:17:37;;;;;;;17.10;12.87;;;9.90;99.90;;;;;;5132223;27;20434;-66
2021/10/12 08:20:08;;;;;;;13.53;12.40;;;10.00;99.90;;;;;;5118308;28;20467;-66
2021/10/12 08:22:35;;;;;;;14.47;12.13;;;10.00;99.90;;;;;;5118717;28;20757;-66
2021/10/12 08:25:07;;;;;;;16.90;13.47;;;9.90;99.90;;;;;;5119190;27;20473;-66
2021/10/12 08:27:34;;;;;;;18.63;13.63;;;10.00;99.90;;;;;;5103169;28;20464;-66
2021/10/12 08:30:04;;;;;;;15.13;13.50;;;10.00;99.90;;;;;;5118574;28;20807;-66
2021/10/12 08:32:35;;;;;;;18.00;14.10;;;10.10;99.90;;;;;;5118508;28;20818;-65
2021/10/12 08:35:07;;;;;;;15.70;14.33;;;10.00;99.90;;;;;;5118657;28;20830;-65
2021/10/12 08:37:38;;;;;;;21.63;14.40;;;10.10;99.90;;;;;;5118358;28;20559;-65
2021/10/12 08:40:12;;;;;;;18.50;15.50;;;10.20;99.90;;;;;;5118297;28;20495;-65
2021/10/12 08:42:46;;;;;;;16.10;14.40;;;10.20;99.90;;;;;;5118377;28;20527;-65
2021/10/12 08:45:17;;;;;;;17.90;15.80;;;10.30;99.90;;;;;;5118368;28;20463;-65
2021/10/12 08:47:48;;;;;;;16.53;14.90;;;10.20;99.90;;;;;;5118110;28;20469;-66
2021/10/12 08:50:19;;;;;;;17.63;15.90;;;10.20;99.90;;;;;;5118189;28;20460;-68
2021/10/12 08:52:46;;;;;;;16.93;15.20;;;10.20;99.90;;;;;;5118240;28;20464;-68
2021/10/12 08:55:15;;;;;;;18.30;14.90;;;10.10;99.90;;;;;;5118137;28;20512;-68
2021/10/12 08:57:45;;;;;;;17.20;15.50;;;10.20;99.90;;;;;;5117762;28;20503;-68
2021/10/12 09:00:14;;;;;;;20.13;16.83;;;10.20;99.90;;;;;;5117406;28;20438;-68
2021/10/12 09:03:19;;;;;;;20.00;15.70;;;10.30;99.90;;;;;;5097110;28;20500;-69
2021/10/12 09:05:53;;;;;;;16.80;15.00;;;10.30;99.90;;;;;;5100277;27;20722;-67
2021/10/12 09:08:30;;;;;;;16.60;14.90;;;10.40;99.90;;;;;;5138445;27;20561;-68
2021/10/12 09:10:58;;;;;;;16.87;15.07;;;10.50;99.90;;;;;;5118037;28;20498;-69
2021/10/12 09:13:25;;;;;;;17.47;14.77;;;10.50;99.90;;;;;;5117687;28;20438;-69
2021/10/12 09:16:08;;;;;;;16.40;14.60;;;10.60;99.90;;;;;;5117957;28;20459;-68
2021/10/12 09:18:57;;;;;;;16.03;14.53;;;10.60;99.90;;;;;;5132826;27;20470;-67
2021/10/12 09:21:26;;;;;;;19.97;15.57;;;10.60;99.90;;;;;;5138228;27;20482;-66
2021/10/12 09:24:05;;;;;;;20.40;16.53;;;10.60;99.90;;;;;;5138164;27;20520;-66
2021/10/12 09:26:40;;;;;;;23.33;17.23;;;10.70;99.90;;;;;;5138566;27;20439;-66
2021/10/12 09:29:13;;;;;;;21.63;16.80;;;10.60;99.90;;;;;;5138047;27;20494;-67
2021/10/12 09:31:42;;;;;;;20.43;17.53;;;10.60;99.90;;;;;;5137500;27;20494;-67
2021/10/12 09:34:12;;;;;;;21.10;19.03;;;10.50;99.90;;;;;;5137244;27;20889;-67
2021/10/12 09:36:46;;;;;;;19.97;17.10;;;10.50;99.90;;;;;;5138098;28;20458;-66
2021/10/12 09:39:18;;;;;;;19.30;16.03;;;10.50;99.90;;;;;;5137756;28;20537;-66
2021/10/12 09:41:46;;;;;;;24.80;17.70;;;10.50;99.90;;;;;;5138016;28;20486;-66
2021/10/12 09:44:16;;;;;;;18.13;16.23;;;10.50;99.90;;;;;;5137861;28;20500;-66
2021/10/12 09:46:47;;;;;;;17.60;15.70;;;10.60;99.90;;;;;;5138111;28;20953;-67
2021/10/12 09:49:20;;;;;;;20.83;14.90;;;10.50;99.90;;;;;;5137959;28;20867;-67
2021/10/12 09:52:02;;;;;;;18.17;16.37;;;10.60;99.90;;;;;;5137633;28;20440;-66
2021/10/12 09:54:31;;;;;;;21.07;16.47;;;10.70;99.90;;;;;;5138433;28;20450;-66
2021/10/12 09:57:02;;;;;;;19.57;17.07;;;10.70;99.90;;;;;;5119814;28;20918;-69
2021/10/12 09:59:35;;;;;;;17.17;15.57;;;10.60;99.90;;;;;;5121396;28;20936;-69
2021/10/12 10:02:02;;;;;;;18.10;16.20;;;10.70;99.90;;;;;;5104619;28;20557;-69
2021/10/12 10:04:31;;;;;;;18.90;16.90;;;10.70;99.90;;;;;;5100938;28;20460;-70
2021/10/12 10:07:18;;;;;;;17.83;16.03;;;10.70;99.90;;;;;;5100748;28;20529;-68
2021/10/12 10:09:51;;;;;;;19.23;17.23;;;10.70;99.90;;;;;;5099569;28;20567;-69
2021/10/12 10:12:26;;;;;;;20.07;17.97;;;10.80;99.90;;;;;;5099114;28;20902;-68
2021/10/12 10:14:57;;;;;;;19.73;17.00;;;10.80;99.90;;;;;;5100268;28;20503;-69
2021/10/12 10:17:25;;;;;;;16.23;14.63;;;10.80;99.90;;;;;;5110092;27;20915;-69
2021/10/12 10:19:55;;;;;;;17.50;15.80;;;10.90;99.90;;;;;;5141500;27;20458;-68
2021/10/12 10:22:39;;;;;;;18.03;16.23;;;11.00;99.90;;;;;;5140747;27;20932;-67
2021/10/12 10:25:29;;;;;;;14.83;13.37;;;11.00;99.90;;;;;;5141658;27;20478;-67
2021/10/12 10:27:57;;;;;;;13.77;12.43;;;11.00;99.90;;;;;;5141628;27;20508;-68
2021/10/12 10:30:34;;;;;;;13.87;12.67;;;11.00;99.90;;;;;;5141879;27;20817;-69
2021/10/12 10:33:03;;;;;;;13.13;11.83;;;11.00;99.90;;;;;;5141849;27;20512;-69
2021/10/12 10:35:41;;;;;;;13.73;12.43;;;11.00;99.90;;;;;;5141300;27;20482;-68
2021/10/12 10:38:31;;;;;;;14.37;13.00;;;11.10;99.90;;;;;;5141289;27;20501;-67
2021/10/12 10:41:24;;;;;;;14.80;13.03;;;11.30;99.90;;;;;;5136518;27;20486;-67
2021/10/12 10:43:59;;;;;;;14.87;13.47;;;11.60;99.90;;;;;;5134706;27;20462;-67
2021/10/12 10:46:43;;;;;;;13.93;12.57;;;11.90;99.90;;;;;;5120580;28;20469;-67
2021/10/12 10:49:17;;;;;;;11.80;10.70;;;11.90;99.90;;;;;;5120513;28;20459;-67
2021/10/12 10:51:59;;;;;;;10.63;9.73;;;11.80;99.90;;;;;;5120494;28;20829;-67
2021/10/12 10:55:03;;;;;;;10.50;9.60;;;11.80;99.90;;;;;;5120416;28;20839;-67
2021/10/12 10:57:31;;;;;;;9.83;8.87;;;11.80;99.90;;;;;;5119684;28;20468;-67
2021/10/12 11:00:26;;;;;;;10.90;10.10;;;11.90;99.90;;;;;;5120241;28;20464;-67
2021/10/12 11:02:54;;;;;;;10.03;9.13;;;11.70;99.90;;;;;;5114743;27;20514;-67
2021/10/12 11:05:47;;;;;;;9.83;9.00;;;11.70;99.90;;;;;;5119559;28;20476;-67
2021/10/12 11:08:20;;;;;;;10.80;9.90;;;11.80;99.90;;;;;;5115563;28;20471;-68
2021/10/12 11:10:50;;;;;;;10.43;9.43;;;12.00;99.90;;;;;;5127986;27;20442;-67
2021/10/12 11:13:38;;;;;;;10.53;9.63;;;12.00;99.90;;;;;;5123242;27;20452;-67
2021/10/12 11:16:07;;;;;;;11.60;10.70;;;12.00;99.90;;;;;;5117908;28;20463;-68
2021/10/12 11:18:35;;;;;;;14.23;10.93;;;12.00;99.90;;;;;;5129036;27;20485;-68
2021/10/12 11:21:07;;;;;;;12.03;10.93;;;12.10;99.90;;;;;;5118281;28;20472;-67
2021/10/12 11:23:39;;;;;;;11.87;10.63;;;12.00;99.90;;;;;;5117795;28;20499;-67
2021/10/12 11:26:12;;;;;;;13.40;12.30;;;12.10;99.90;;;;;;5118415;28;20459;-67
2021/10/12 11:28:41;;;;;;;14.77;13.30;;;12.10;99.90;;;;;;5117943;28;20490;-66
2021/10/12 11:31:10;;;;;;;16.03;14.53;;;12.10;99.90;;;;;;5116676;28;20781;-66
2021/10/12 11:33:40;;;;;;;16.20;14.77;;;12.10;99.90;;;;;;5117927;28;20542;-66
2021/10/12 11:36:09;;;;;;;17.60;15.90;;;12.20;99.90;;;;;;5117431;28;20814;-67
2021/10/12 11:38:41;;;;;;;19.50;17.60;;;12.10;99.90;;;;;;5113153;28;20876;-67
2021/10/12 11:41:31;;;;;;;20.17;18.33;;;12.10;99.90;;;;;;5118240;28;20912;-67
2021/10/12 11:44:01;;;;;;;18.97;17.13;;;12.00;99.90;;;;;;5126564;27;20472;-66
2021/10/12 11:46:35;;;;;;;19.43;17.53;;;11.90;99.90;;;;;;5138899;27;20494;-66
2021/10/12 11:49:09;;;;;;;19.80;17.77;;;12.00;99.90;;;;;;5140376;27;20877;-66
2021/10/12 11:51:37;;;;;;;18.83;17.00;;;11.90;99.90;;;;;;5139604;27;20486;-66
2021/10/12 11:54:05;;;;;;;20.43;18.23;;;11.90;99.90;;;;;;5139136;27;20522;-65
2021/10/12 11:56:36;;;;;;;22.87;20.77;;;12.00;99.90;;;;;;5139826;27;20469;-65
2021/10/12 11:59:06;;;;;;;20.47;18.50;;;12.10;99.90;;;;;;5139727;27;20465;-65
2021/10/12 12:01:34;;;;;;;19.73;18.03;;;12.30;99.90;;;;;;5127141;27;20746;-65
2021/10/12 12:04:09;;;;;;;20.03;18.20;;;12.60;99.90;;;;;;5119050;28;20929;-65
2021/10/12 12:06:38;;;;;;;17.60;15.83;;;12.70;99.90;;;;;;5119099;28;20438;-64
2021/10/12 12:09:11;;;;;;;18.23;16.63;;;12.70;99.90;;;;;;5118849;28;20458;-64
2021/10/12 12:11:41;;;;;;;18.40;15.43;;;12.40;99.90;;;;;;5118607;28;20471;-64
2021/10/12 12:14:08;;;;;;;14.93;13.57;;;12.20;99.90;;;;;;5118779;28;20469;-64
2021/10/12 12:16:35;;;;;;;17.10;15.37;;;12.20;99.90;;;;;;5119235;28;20495;-64
2021/10/12 12:19:19;;;;;;;16.70;15.00;;;12.10;99.90;;;;;;5118490;28;20521;-64
2021/10/12 12:21:51;;;;;;;19.20;17.20;;;12.10;99.90;;;;;;5118539;28;20562;-64
2021/10/12 12:24:21;;;;;;;18.20;16.60;;;12.00;99.90;;;;;;5118633;28;20459;-64
2021/10/12 12:27:01;;;;;;;20.73;18.73;;;11.80;99.90;;;;;;5118729;28;20434;-64
2021/10/12 12:29:31;;;;;;;20.60;18.50;;;11.70;99.90;;;;;;5118319;28;20812;-64
2021/10/12 12:31:59;;;;;;;21.67;19.50;;;11.60;99.90;;;;;;5118407;27;20903;-65
2021/10/12 12:34:34;;;;;;;24.43;20.73;;;11.70;99.90;;;;;;5127746;27;20487;-65
2021/10/12 12:37:03;;;;;;;22.00;19.83;;;11.80;99.90;;;;;;5126570;27;20822;-65
2021/10/12 12:39:37;;;;;;;23.93;21.03;;;11.80;99.90;;;;;;5129641;27;20459;-65
2021/10/12 12:42:09;;;;;;;22.30;20.00;;;12.10;99.90;;;;;;5118879;27;20494;-64
2021/10/12 12:44:36;;;;;;;19.33;17.60;;;12.10;99.90;;;;;;5117273;28;20466;-64
2021/10/12 12:47:04;;;;;;;17.90;16.20;;;12.20;99.90;;;;;;5117315;28;20463;-64